sensor_id;sensor_type;location;lat;lon;timestamp;pressure;altitude;pressure_sealevel;temperature;humidity
47897;BME280;39629;51.400;5.494;2023-05-06T00:04:01;101470.72;;;10.07;100.00
47897;BME280;39629;51.400;5.494;2023-05-06T00:09:04;101471.44;;;9.91;100.00
47897;BME280;39629;51.400;5.494;2023-05-06T00:14:06;101462.56;;;9.79;100.00
47897;BME280;39629;51.400;5.494;2023-05-06T00:19:07;101453.59;;;9.60;100.00
47897;BME280;39629;51.400;5.494;2023-05-06T00:24:10;101469.97;;;9.36;100.00
47897;BME280;39629;51.400;5.494;2023-05-06T00:29:12;101464.69;;;9.33;100.00
47897;BME280;39629;51.400;5.494;2023-05-06T00:34:13;101452.31;;;9.27;100.00
47897;BME280;39629;51.400;5.494;2023-05-06T00:39:16;101463.63;;;9.20;100.00
47897;BME280;39629;51.400;5.494;2023-05-06T00:44:18;101461.75;;;9.10;100.00
47897;BME280;39629;51.400;5.494;2023-05-06T00:49:20;101448.63;;;9.11;100.00
47897;BME280;39629;51.400;5.494;2023-05-06T00:54:23;101449.41;;;9.02;100.00
47897;BME280;39629;51.400;5.494;2023-05-06T00:59:26;101455.59;;;9.09;100.00
47897;BME280;39629;51.400;5.494;2023-05-06T01:04:28;101446.59;;;8.92;100.00
47897;BME280;39629;51.400;5.494;2023-05-06T01:09:38;101449.22;;;8.92;100.00
47897;BME280;39629;51.400;5.494;2023-05-06T01:14:45;101446.19;;;8.64;100.00
47897;BME280;39629;51.400;5.494;2023-05-06T01:19:51;101441.72;;;8.55;100.00
47897;BME280;39629;51.400;5.494;2023-05-06T01:24:54;101446.00;;;8.51;100.00
47897;BME280;39629;51.400;5.494;2023-05-06T01:29:57;101446.81;;;8.46;100.00
47897;BME280;39629;51.400;5.494;2023-05-06T01:35:05;101451.16;;;8.45;100.00
47897;BME280;39629;51.400;5.494;2023-05-06T01:40:13;101450.22;;;8.40;100.00
47897;BME280;39629;51.400;5.494;2023-05-06T01:45:18;101451.09;;;8.42;100.00
47897;BME280;39629;51.400;5.494;2023-05-06T01:50:21;101457.72;;;8.18;100.00
47897;BME280;39629;51.400;5.494;2023-05-06T01:55:24;101465.59;;;8.18;100.00
47897;BME280;39629;51.400;5.494;2023-05-06T02:00:26;101461.09;;;8.11;100.00
47897;BME280;39629;51.400;5.494;2023-05-06T02:05:27;101466.34;;;8.11;100.00
47897;BME280;39629;51.400;5.494;2023-05-06T02:10:32;101460.31;;;8.17;100.00
47897;BME280;39629;51.400;5.494;2023-05-06T02:15:38;101464.31;;;7.96;100.00
47897;BME280;39629;51.400;5.494;2023-05-06T02:20:43;101467.44;;;7.75;100.00
47897;BME280;39629;51.400;5.494;2023-05-06T02:25:51;101470.13;;;7.80;100.00
47897;BME280;39629;51.400;5.494;2023-05-06T02:30:56;101467.47;;;7.77;100.00
47897;BME280;39629;51.400;5.494;2023-05-06T02:35:58;101472.72;;;7.78;100.00
47897;BME280;39629;51.400;5.494;2023-05-06T02:41:00;101468.25;;;7.71;100.00
47897;BME280;39629;51.400;5.494;2023-05-06T02:46:02;101470.84;;;7.71;100.00
47897;BME280;39629;51.400;5.494;2023-05-06T02:51:04;101469.97;;;7.69;100.00
47897;BME280;39629;51.400;5.494;2023-05-06T02:56:07;101460.06;;;7.54;100.00
47897;BME280;39629;51.400;5.494;2023-05-06T03:01:09;101458.13;;;7.45;100.00
47897;BME280;39629;51.400;5.494;2023-05-06T03:06:11;101459.78;;;7.40;100.00
47897;BME280;39629;51.400;5.494;2023-05-06T03:11:14;101454.50;;;7.37;100.00
47897;BME280;39629;51.400;5.494;2023-05-06T03:16:15;101461.44;;;7.37;100.00
47897;BME280;39629;51.400;5.494;2023-05-06T03:21:22;101459.72;;;7.37;100.00
47897;BME280;39629;51.400;5.494;2023-05-06T03:26:27;101450.19;;;7.41;100.00
47897;BME280;39629;51.400;5.494;2023-05-06T03:31:28;101446.09;;;7.11;100.00
47897;BME280;39629;51.400;5.494;2023-05-06T03:36:32;101445.06;;;7.03;100.00
47897;BME280;39629;51.400;5.494;2023-05-06T03:41:35;101448.47;;;7.00;100.00
47897;BME280;39629;51.400;5.494;2023-05-06T03:46:37;101445.91;;;7.02;100.00
47897;BME280;39629;51.400;5.494;2023-05-06T03:51:40;101450.31;;;7.04;100.00
47897;BME280;39629;51.400;5.494;2023-05-06T03:56:43;101454.84;;;7.13;100.00
47897;BME280;39629;51.400;5.494;2023-05-06T04:01:45;101448.53;;;7.03;100.00
47897;BME280;39629;51.400;5.494;2023-05-06T04:06:48;101446.00;;;7.08;100.00
47897;BME280;39629;51.400;5.494;2023-05-06T04:11:52;101452.16;;;7.08;100.00
47897;BME280;39629;51.400;5.494;2023-05-06T04:16:54;101455.72;;;7.13;100.00
47897;BME280;39629;51.400;5.494;2023-05-06T04:21:56;101456.78;;;7.22;100.00
47897;BME280;39629;51.400;5.494;2023-05-06T04:27:01;101457.69;;;7.24;100.00
47897;BME280;39629;51.400;5.494;2023-05-06T04:32:03;101457.47;;;7.13;100.00
47897;BME280;39629;51.400;5.494;2023-05-06T04:37:08;101464.69;;;7.23;100.00
47897;BME280;39629;51.400;5.494;2023-05-06T04:42:16;101466.53;;;7.29;100.00
47897;BME280;39629;51.400;5.494;2023-05-06T04:47:35;101464.13;;;7.40;100.00
47897;BME280;39629;51.400;5.494;2023-05-06T04:52:38;101476.59;;;7.52;100.00
47897;BME280;39629;51.400;5.494;2023-05-06T04:57:41;101477.75;;;7.67;100.00
47897;BME280;39629;51.400;5.494;2023-05-06T05:02:43;101489.75;;;8.02;100.00
47897;BME280;39629;51.400;5.494;2023-05-06T05:07:47;101497.63;;;8.52;100.00
47897;BME280;39629;51.400;5.494;2023-05-06T05:12:50;101496.72;;;9.07;100.00
47897;BME280;39629;51.400;5.494;2023-05-06T05:17:51;101493.13;;;9.71;100.00
47897;BME280;39629;51.400;5.494;2023-05-06T05:22:56;101497.34;;;10.44;100.00
47897;BME280;39629;51.400;5.494;2023-05-06T05:27:59;101501.06;;;10.74;100.00
47897;BME280;39629;51.400;5.494;2023-05-06T05:33:02;101507.88;;;10.44;100.00
47897;BME280;39629;51.400;5.494;2023-05-06T05:38:04;101515.88;;;10.56;100.00
47897;BME280;39629;51.400;5.494;2023-05-06T05:43:07;101516.00;;;10.73;100.00
47897;BME280;39629;51.400;5.494;2023-05-06T05:48:12;101507.31;;;10.85;100.00
47897;BME280;39629;51.400;5.494;2023-05-06T05:53:14;101505.66;;;10.97;100.00
47897;BME280;39629;51.400;5.494;2023-05-06T05:58:17;101499.63;;;11.19;100.00
47897;BME280;39629;51.400;5.494;2023-05-06T06:03:19;101505.88;;;11.40;100.00
47897;BME280;39629;51.400;5.494;2023-05-06T06:08:21;101509.50;;;11.67;100.00
47897;BME280;39629;51.400;5.494;2023-05-06T06:13:26;101499.84;;;11.81;100.00
47897;BME280;39629;51.400;5.494;2023-05-06T06:18:28;101502.56;;;12.06;100.00
47897;BME280;39629;51.400;5.494;2023-05-06T06:23:30;101507.88;;;12.43;100.00
47897;BME280;39629;51.400;5.494;2023-05-06T06:28:33;101500.72;;;13.32;100.00
47897;BME280;39629;51.400;5.494;2023-05-06T06:33:35;101509.19;;;14.06;100.00
47897;BME280;39629;51.400;5.494;2023-05-06T06:38:36;101506.06;;;14.65;100.00
47897;BME280;39629;51.400;5.494;2023-05-06T06:43:39;101504.03;;;14.96;100.00
47897;BME280;39629;51.400;5.494;2023-05-06T06:48:50;101498.16;;;15.46;100.00
47897;BME280;39629;51.400;5.494;2023-05-06T06:53:51;101506.00;;;16.19;100.00
47897;BME280;39629;51.400;5.494;2023-05-06T06:58:54;101510.28;;;16.28;100.00
47897;BME280;39629;51.400;5.494;2023-05-06T07:03:56;101507.44;;;16.42;100.00
47897;BME280;39629;51.400;5.494;2023-05-06T07:08:57;101511.50;;;16.63;100.00
47897;BME280;39629;51.400;5.494;2023-05-06T07:14:00;101502.78;;;17.03;100.00
47897;BME280;39629;51.400;5.494;2023-05-06T07:19:01;101506.13;;;16.67;100.00
47897;BME280;39629;51.400;5.494;2023-05-06T07:24:03;101511.53;;;17.10;100.00
47897;BME280;39629;51.400;5.494;2023-05-06T07:29:06;101518.88;;;16.97;100.00
47897;BME280;39629;51.400;5.494;2023-05-06T07:34:08;101519.22;;;16.77;100.00
47897;BME280;39629;51.400;5.494;2023-05-06T07:39:11;101520.13;;;17.23;100.00
47897;BME280;39629;51.400;5.494;2023-05-06T07:44:14;101516.31;;;17.37;100.00
47897;BME280;39629;51.400;5.494;2023-05-06T07:49:15;101515.34;;;17.43;100.00
47897;BME280;39629;51.400;5.494;2023-05-06T07:54:17;101519.41;;;18.02;100.00
47897;BME280;39629;51.400;5.494;2023-05-06T07:59:20;101514.59;;;18.18;100.00
47897;BME280;39629;51.400;5.494;2023-05-06T08:04:21;101518.88;;;17.86;100.00
47897;BME280;39629;51.400;5.494;2023-05-06T08:09:23;101520.84;;;18.53;100.00
47897;BME280;39629;51.400;5.494;2023-05-06T08:14:26;101526.69;;;18.69;100.00
47897;BME280;39629;51.400;5.494;2023-05-06T08:19:28;101514.13;;;18.72;100.00
47897;BME280;39629;51.400;5.494;2023-05-06T08:24:29;101522.28;;;19.65;100.00
47897;BME280;39629;51.400;5.494;2023-05-06T08:29:32;101515.38;;;19.25;100.00
47897;BME280;39629;51.400;5.494;2023-05-06T08:34:34;101507.56;;;19.52;100.00
47897;BME280;39629;51.400;5.494;2023-05-06T08:39:35;101504.97;;;19.79;100.00
47897;BME280;39629;51.400;5.494;2023-05-06T08:44:38;101507.56;;;20.08;100.00
47897;BME280;39629;51.400;5.494;2023-05-06T08:49:40;101505.19;;;20.56;100.00
47897;BME280;39629;51.400;5.494;2023-05-06T08:54:42;101487.56;;;21.26;100.00
47897;BME280;39629;51.400;5.494;2023-05-06T08:59:46;101487.19;;;21.11;100.00
47897;BME280;39629;51.400;5.494;2023-05-06T09:04:48;101481.16;;;21.54;100.00
47897;BME280;39629;51.400;5.494;2023-05-06T09:09:50;101487.13;;;20.36;100.00
47897;BME280;39629;51.400;5.494;2023-05-06T09:14:53;101491.28;;;20.97;100.00
47897;BME280;39629;51.400;5.494;2023-05-06T09:19:55;101485.44;;;20.85;100.00
47897;BME280;39629;51.400;5.494;2023-05-06T09:24:57;101492.00;;;21.02;100.00
47897;BME280;39629;51.400;5.494;2023-05-06T09:30:02;101484.66;;;21.07;100.00
47897;BME280;39629;51.400;5.494;2023-05-06T09:35:05;101484.41;;;21.62;100.00
47897;BME280;39629;51.400;5.494;2023-05-06T09:40:07;101481.16;;;21.54;100.00
47897;BME280;39629;51.400;5.494;2023-05-06T09:45:14;101477.31;;;21.61;100.00
47897;BME280;39629;51.400;5.494;2023-05-06T09:50:16;101471.81;;;21.64;100.00
47897;BME280;39629;51.400;5.494;2023-05-06T09:55:18;101473.13;;;22.64;100.00
47897;BME280;39629;51.400;5.494;2023-05-06T10:00:23;101477.84;;;22.37;100.00
47897;BME280;39629;51.400;5.494;2023-05-06T10:05:27;101471.66;;;22.15;100.00
47897;BME280;39629;51.400;5.494;2023-05-06T10:10:29;101462.34;;;22.87;100.00
47897;BME280;39629;51.400;5.494;2023-05-06T10:15:33;101466.75;;;21.80;100.00
47897;BME280;39629;51.400;5.494;2023-05-06T10:20:35;101458.47;;;22.51;100.00
47897;BME280;39629;51.400;5.494;2023-05-06T10:25:38;101453.53;;;23.42;100.00
47897;BME280;39629;51.400;5.494;2023-05-06T10:30:43;101455.75;;;22.73;100.00
47897;BME280;39629;51.400;5.494;2023-05-06T10:35:48;101456.38;;;23.96;100.00
47897;BME280;39629;51.400;5.494;2023-05-06T10:40:53;101435.47;;;23.45;100.00
47897;BME280;39629;51.400;5.494;2023-05-06T10:46:05;101441.41;;;22.95;100.00
47897;BME280;39629;51.400;5.494;2023-05-06T10:51:25;101434.81;;;22.81;100.00
47897;BME280;39629;51.400;5.494;2023-05-06T10:56:28;101432.28;;;23.37;100.00
47897;BME280;39629;51.400;5.494;2023-05-06T11:01:32;101432.66;;;24.04;100.00
47897;BME280;39629;51.400;5.494;2023-05-06T11:06:37;101431.88;;;22.67;100.00
47897;BME280;39629;51.400;5.494;2023-05-06T11:11:59;101426.63;;;21.56;100.00
47897;BME280;39629;51.400;5.494;2023-05-06T11:17:03;101428.47;;;21.99;100.00
47897;BME280;39629;51.400;5.494;2023-05-06T11:22:05;101421.28;;;21.78;100.00
47897;BME280;39629;51.400;5.494;2023-05-06T11:27:08;101424.28;;;22.77;100.00
47897;BME280;39629;51.400;5.494;2023-05-06T11:32:21;101404.25;;;22.86;100.00
47897;BME280;39629;51.400;5.494;2023-05-06T11:37:24;101400.78;;;23.22;100.00
47897;BME280;39629;51.400;5.494;2023-05-06T11:42:27;101403.84;;;22.54;100.00
47897;BME280;39629;51.400;5.494;2023-05-06T11:47:30;101399.06;;;22.60;100.00
47897;BME280;39629;51.400;5.494;2023-05-06T11:52:32;101399.09;;;23.00;100.00
47897;BME280;39629;51.400;5.494;2023-05-06T11:57:40;101403.38;;;23.04;100.00
47897;BME280;39629;51.400;5.494;2023-05-06T12:02:45;101398.41;;;23.16;100.00
47897;BME280;39629;51.400;5.494;2023-05-06T12:07:46;101402.44;;;22.45;100.00
47897;BME280;39629;51.400;5.494;2023-05-06T12:12:48;101401.78;;;23.00;100.00
47897;BME280;39629;51.400;5.494;2023-05-06T12:17:51;101403.22;;;22.47;90.53
47897;BME280;39629;51.400;5.494;2023-05-06T12:23:04;101389.06;;;22.64;91.94
47897;BME280;39629;51.400;5.494;2023-05-06T12:28:12;101404.25;;;22.24;88.40
47897;BME280;39629;51.400;5.494;2023-05-06T12:33:17;101406.84;;;22.05;86.40
47897;BME280;39629;51.400;5.494;2023-05-06T12:38:18;101401.84;;;22.38;84.51
47897;BME280;39629;51.400;5.494;2023-05-06T12:43:27;101400.00;;;22.80;89.47
47897;BME280;39629;51.400;5.494;2023-05-06T12:48:30;101394.69;;;22.99;85.60
47897;BME280;39629;51.400;5.494;2023-05-06T12:53:33;101401.00;;;23.36;87.89
47897;BME280;39629;51.400;5.494;2023-05-06T12:58:35;101396.66;;;23.14;88.66
47897;BME280;39629;51.400;5.494;2023-05-06T13:03:40;101392.72;;;22.63;82.92
47897;BME280;39629;51.400;5.494;2023-05-06T13:08:41;101396.38;;;22.81;84.05
47897;BME280;39629;51.400;5.494;2023-05-06T13:13:43;101396.63;;;22.95;87.02
47897;BME280;39629;51.400;5.494;2023-05-06T13:18:45;101386.97;;;22.71;80.05
47897;BME280;39629;51.400;5.494;2023-05-06T13:23:47;101390.56;;;22.92;83.43
47897;BME280;39629;51.400;5.494;2023-05-06T13:33:51;101400.13;;;22.77;74.84
47897;BME280;39629;51.400;5.494;2023-05-06T13:38:53;101386.44;;;22.83;80.49
47897;BME280;39629;51.400;5.494;2023-05-06T13:43:55;101372.56;;;22.73;77.67
47897;BME280;39629;51.400;5.494;2023-05-06T13:48:57;101377.41;;;22.86;79.03
47897;BME280;39629;51.400;5.494;2023-05-06T13:53:59;101372.50;;;22.54;77.40
47897;BME280;39629;51.400;5.494;2023-05-06T13:59:01;101371.50;;;22.36;75.68
47897;BME280;39629;51.400;5.494;2023-05-06T14:04:04;101368.69;;;22.60;78.74
47897;BME280;39629;51.400;5.494;2023-05-06T14:09:06;101369.56;;;23.00;82.19
47897;BME280;39629;51.400;5.494;2023-05-06T14:14:07;101362.03;;;22.69;77.58
47897;BME280;39629;51.400;5.494;2023-05-06T14:19:10;101352.09;;;22.52;78.98
47897;BME280;39629;51.400;5.494;2023-05-06T14:24:12;101358.25;;;22.12;78.64
47897;BME280;39629;51.400;5.494;2023-05-06T14:29:13;101355.63;;;22.11;79.80
47897;BME280;39629;51.400;5.494;2023-05-06T14:34:16;101350.88;;;22.18;79.86
47897;BME280;39629;51.400;5.494;2023-05-06T14:39:17;101344.59;;;22.39;75.89
47897;BME280;39629;51.400;5.494;2023-05-06T14:44:19;101340.56;;;22.29;75.15
47897;BME280;39629;51.400;5.494;2023-05-06T14:49:22;101336.56;;;22.19;72.35
47897;BME280;39629;51.400;5.494;2023-05-06T14:54:24;101338.28;;;22.20;72.00
47897;BME280;39629;51.400;5.494;2023-05-06T14:59:28;101329.75;;;22.10;78.17
47897;BME280;39629;51.400;5.494;2023-05-06T15:04:31;101335.88;;;21.91;79.82
47897;BME280;39629;51.400;5.494;2023-05-06T15:09:33;101340.63;;;21.85;74.15
47897;BME280;39629;51.400;5.494;2023-05-06T15:14:34;101347.25;;;21.32;82.25
47897;BME280;39629;51.400;5.494;2023-05-06T15:19:37;101369.78;;;20.01;100.00
47897;BME280;39629;51.400;5.494;2023-05-06T15:24:39;101381.88;;;18.32;100.00
47897;BME280;39629;51.400;5.494;2023-05-06T15:29:40;101388.41;;;17.86;100.00
47897;BME280;39629;51.400;5.494;2023-05-06T15:34:43;101396.75;;;17.70;100.00
47897;BME280;39629;51.400;5.494;2023-05-06T15:39:45;101398.06;;;17.52;100.00
47897;BME280;39629;51.400;5.494;2023-05-06T15:44:47;101402.97;;;17.30;100.00
47897;BME280;39629;51.400;5.494;2023-05-06T15:49:52;101396.72;;;17.31;100.00
47897;BME280;39629;51.400;5.494;2023-05-06T15:54:53;101407.38;;;17.31;100.00
47897;BME280;39629;51.400;5.494;2023-05-06T15:59:55;101405.34;;;17.44;100.00
47897;BME280;39629;51.400;5.494;2023-05-06T16:04:58;101404.47;;;17.44;100.00
47897;BME280;39629;51.400;5.494;2023-05-06T16:09:59;101418.84;;;17.33;100.00
47897;BME280;39629;51.400;5.494;2023-05-06T16:15:01;101415.53;;;17.22;100.00
47897;BME280;39629;51.400;5.494;2023-05-06T16:20:06;101418.19;;;17.22;100.00
47897;BME280;39629;51.400;5.494;2023-05-06T16:25:09;101413.31;;;17.02;100.00
47897;BME280;39629;51.400;5.494;2023-05-06T16:30:11;101415.13;;;17.00;100.00
47897;BME280;39629;51.400;5.494;2023-05-06T16:35:15;101414.72;;;16.75;100.00
47897;BME280;39629;51.400;5.494;2023-05-06T16:40:18;101418.94;;;16.85;100.00
47897;BME280;39629;51.400;5.494;2023-05-06T16:45:21;101411.88;;;16.85;100.00
47897;BME280;39629;51.400;5.494;2023-05-06T16:50:24;101413.53;;;16.91;100.00
47897;BME280;39629;51.400;5.494;2023-05-06T16:55:25;101419.13;;;16.77;100.00
47897;BME280;39629;51.400;5.494;2023-05-06T17:00:27;101424.38;;;16.80;100.00
47897;BME280;39629;51.400;5.494;2023-05-06T17:05:30;101429.88;;;16.69;100.00
47897;BME280;39629;51.400;5.494;2023-05-06T17:10:32;101424.03;;;16.52;100.00
47897;BME280;39629;51.400;5.494;2023-05-06T17:15:34;101430.31;;;16.45;100.00
47897;BME280;39629;51.400;5.494;2023-05-06T17:20:37;101431.25;;;16.44;100.00
47897;BME280;39629;51.400;5.494;2023-05-06T17:25:38;101436.66;;;16.38;100.00
47897;BME280;39629;51.400;5.494;2023-05-06T17:30:40;101439.47;;;16.27;100.00
47897;BME280;39629;51.400;5.494;2023-05-06T17:35:43;101436.66;;;16.38;100.00
47897;BME280;39629;51.400;5.494;2023-05-06T17:40:45;101427.03;;;16.29;100.00
47897;BME280;39629;51.400;5.494;2023-05-06T17:45:46;101432.50;;;16.19;100.00
47897;BME280;39629;51.400;5.494;2023-05-06T17:50:49;101425.44;;;16.18;100.00
47897;BME280;39629;51.400;5.494;2023-05-06T17:55:51;101422.94;;;16.11;100.00
47897;BME280;39629;51.400;5.494;2023-05-06T18:00:52;101429.50;;;15.85;100.00
47897;BME280;39629;51.400;5.494;2023-05-06T18:05:55;101428.78;;;15.75;100.00
47897;BME280;39629;51.400;5.494;2023-05-06T18:10:57;101428.75;;;15.77;100.00
47897;BME280;39629;51.400;5.494;2023-05-06T18:15:59;101434.22;;;15.67;100.00
47897;BME280;39629;51.400;5.494;2023-05-06T18:21:02;101439.75;;;15.52;100.00
47897;BME280;39629;51.400;5.494;2023-05-06T18:26:04;101441.47;;;15.53;100.00
47897;BME280;39629;51.400;5.494;2023-05-06T18:31:06;101438.03;;;15.48;100.00
47897;BME280;39629;51.400;5.494;2023-05-06T18:36:09;101438.97;;;15.41;100.00
47897;BME280;39629;51.400;5.494;2023-05-06T18:41:12;101442.56;;;15.37;100.00
47897;BME280;39629;51.400;5.494;2023-05-06T18:46:13;101442.56;;;15.37;100.00
47897;BME280;39629;51.400;5.494;2023-05-06T18:51:16;101444.50;;;15.24;100.00
47897;BME280;39629;51.400;5.494;2023-05-06T18:56:18;101439.25;;;15.21;100.00
47897;BME280;39629;51.400;5.494;2023-05-06T19:01:20;101442.03;;;15.08;100.00
47897;BME280;39629;51.400;5.494;2023-05-06T19:06:23;101437.66;;;15.04;100.00
47897;BME280;39629;51.400;5.494;2023-05-06T19:11:25;101439.41;;;15.07;100.00
47897;BME280;39629;51.400;5.494;2023-05-06T19:16:26;101443.81;;;15.05;100.00
47897;BME280;39629;51.400;5.494;2023-05-06T19:21:29;101443.94;;;14.95;100.00
47897;BME280;39629;51.400;5.494;2023-05-06T19:26:31;101442.28;;;14.85;100.00
47897;BME280;39629;51.400;5.494;2023-05-06T19:31:32;101448.44;;;14.87;100.00
47897;BME280;39629;51.400;5.494;2023-05-06T19:36:36;101447.63;;;14.82;100.00
47897;BME280;39629;51.400;5.494;2023-05-06T19:41:38;101442.41;;;14.76;100.00
47897;BME280;39629;51.400;5.494;2023-05-06T19:46:39;101445.03;;;14.77;100.00
47897;BME280;39629;51.400;5.494;2023-05-06T19:51:42;101439.72;;;14.79;100.00
47897;BME280;39629;51.400;5.494;2023-05-06T19:56:44;101441.50;;;14.74;100.00
47897;BME280;39629;51.400;5.494;2023-05-06T20:01:45;101435.34;;;14.75;100.00
47897;BME280;39629;51.400;5.494;2023-05-06T20:06:48;101431.88;;;14.67;100.00
47897;BME280;39629;51.400;5.494;2023-05-06T20:11:50;101439.00;;;14.61;100.00
47897;BME280;39629;51.400;5.494;2023-05-06T20:16:51;101435.53;;;14.56;100.00
47897;BME280;39629;51.400;5.494;2023-05-06T20:21:54;101434.63;;;14.56;100.00
47897;BME280;39629;51.400;5.494;2023-05-06T20:26:56;101436.47;;;14.49;100.00
47897;BME280;39629;51.400;5.494;2023-05-06T20:31:58;101429.53;;;14.37;100.00
47897;BME280;39629;51.400;5.494;2023-05-06T20:37:01;101431.31;;;14.32;100.00
47897;BME280;39629;51.400;5.494;2023-05-06T20:42:04;101429.66;;;14.23;100.00
47897;BME280;39629;51.400;5.494;2023-05-06T20:47:05;101428.75;;;14.23;100.00
47897;BME280;39629;51.400;5.494;2023-05-06T20:52:12;101431.47;;;14.17;100.00
47897;BME280;39629;51.400;5.494;2023-05-06T20:57:16;101438.63;;;14.04;100.00
47897;BME280;39629;51.400;5.494;2023-05-06T21:02:18;101441.34;;;13.94;100.00
47897;BME280;39629;51.400;5.494;2023-05-06T21:07:21;101424.66;;;13.77;100.00
47897;BME280;39629;51.400;5.494;2023-05-06T21:12:23;101419.44;;;13.69;100.00
47897;BME280;39629;51.400;5.494;2023-05-06T21:17:24;101422.13;;;13.65;100.00
47897;BME280;39629;51.400;5.494;2023-05-06T21:22:27;101427.44;;;13.57;100.00
47897;BME280;39629;51.400;5.494;2023-05-06T21:27:29;101428.41;;;13.42;100.00
47897;BME280;39629;51.400;5.494;2023-05-06T21:32:31;101427.56;;;13.38;100.00
47897;BME280;39629;51.400;5.494;2023-05-06T21:37:34;101428.47;;;13.33;100.00
47897;BME280;39629;51.400;5.494;2023-05-06T21:42:36;101437.28;;;13.25;100.00
47897;BME280;39629;51.400;5.494;2023-05-06T21:47:37;101439.97;;;13.19;100.00
47897;BME280;39629;51.400;5.494;2023-05-06T21:52:40;101427.63;;;13.18;100.00
47897;BME280;39629;51.400;5.494;2023-05-06T21:57:42;101433.78;;;13.17;100.00
47897;BME280;39629;51.400;5.494;2023-05-06T22:02:43;101425.97;;;12.95;100.00
47897;BME280;39629;51.400;5.494;2023-05-06T22:07:46;101423.34;;;12.92;100.00
47897;BME280;39629;51.400;5.494;2023-05-06T22:12:48;101418.94;;;12.84;100.00
47897;BME280;39629;51.400;5.494;2023-05-06T22:17:50;101409.25;;;12.80;100.00
47897;BME280;39629;51.400;5.494;2023-05-06T22:22:53;101402.28;;;12.68;100.00
47897;BME280;39629;51.400;5.494;2023-05-06T22:27:55;101414.59;;;12.53;100.00
47897;BME280;39629;51.400;5.494;2023-05-06T22:32:57;101410.22;;;12.52;100.00
47897;BME280;39629;51.400;5.494;2023-05-06T22:38:00;101401.41;;;12.59;100.00
47897;BME280;39629;51.400;5.494;2023-05-06T22:43:01;101396.13;;;12.58;100.00
47897;BME280;39629;51.400;5.494;2023-05-06T22:48:03;101402.28;;;12.49;100.00
47897;BME280;39629;51.400;5.494;2023-05-06T22:53:07;101413.72;;;12.39;100.00
47897;BME280;39629;51.400;5.494;2023-05-06T22:58:08;101412.84;;;12.31;100.00
47897;BME280;39629;51.400;5.494;2023-05-06T23:03:10;101413.75;;;12.25;100.00
47897;BME280;39629;51.400;5.494;2023-05-06T23:08:13;101427.81;;;12.25;100.00
47897;BME280;39629;51.400;5.494;2023-05-06T23:13:15;101430.44;;;12.38;100.00
47897;BME280;39629;51.400;5.494;2023-05-06T23:18:17;101435.69;;;12.41;100.00
47897;BME280;39629;51.400;5.494;2023-05-06T23:23:21;101431.31;;;12.43;100.00
47897;BME280;39629;51.400;5.494;2023-05-06T23:28:22;101434.88;;;12.48;100.00
47897;BME280;39629;51.400;5.494;2023-05-06T23:33:24;101433.97;;;12.46;100.00
47897;BME280;39629;51.400;5.494;2023-05-06T23:38:27;101431.34;;;12.52;100.00
47897;BME280;39629;51.400;5.494;2023-05-06T23:43:29;101433.09;;;12.53;100.00
47897;BME280;39629;51.400;5.494;2023-05-06T23:48:30;101435.75;;;12.58;100.00
47897;BME280;39629;51.400;5.494;2023-05-06T23:53:33;101433.06;;;12.75;100.00
47897;BME280;39629;51.400;5.494;2023-05-06T23:58:36;101443.59;;;12.78;100.00
